This is the latest recevied weather packets stored in our database for station/object KF4KUL. If no packets are shown the sender has not sent any weather packets the latest 1 day(s).
| Time | Temp. | Humidity | Pressure | Rain* | Wind** | Luminosity | Snow |
|---|---|---|---|---|---|---|---|
| 1778015927 | 27.78° C | 62% | 1014.4 hPa | 0 mm | 3.13 m/s, 3° | - | - |
| 1778015026 | 27.78° C | 62% | 1014.3 hPa | 0 mm | 2.24 m/s, 274° | - | - |
| 1778014125 | 28.33° C | 59% | 1014.3 hPa | 0 mm | 1.34 m/s, 10° | - | - |
| 1778013224 | 28.89° C | 58% | 1014.2 hPa | 0 mm | 0 m/s | - | - |
| 1778012323 | 28.89° C | 57% | 1014.3 hPa | 0 mm | 0.89 m/s, 294° | - | - |
| 1778011422 | 29.44° C | 56% | 1014.4 hPa | 0 mm | 1.34 m/s, 298° | - | - |
| 1778010521 | 29.44° C | 56% | 1014.6 hPa | 0 mm | 0.89 m/s, 37° | - | - |
| 1778009620 | 28.33° C | 57% | 1014.8 hPa | 0 mm | 2.24 m/s, 354° | - | - |
| 1778008719 | 28.89° C | 56% | 1014.9 hPa | 0 mm | 2.68 m/s, 335° | - | - |
| 1778007818 | 29.44° C | 56% | 1014.9 hPa | 0 mm | 2.68 m/s, 6° | - | - |
| 1778006917 | 28.33° C | 57% | 1015.1 hPa | 0 mm | 2.24 m/s, 359° | - | - |
| 1778006016 | 28.33° C | 58% | 1015.2 hPa | 0 mm | 2.24 m/s, 281° | - | - |
| 1778005115 | 28.33° C | 58% | 1015.3 hPa | 0 mm | 2.24 m/s, 301° | - | - |
| 1778004214 | 28.33° C | 56% | 1015.5 hPa | 0 mm | 0.45 m/s, 321° | - | - |
| 1778003313 | 27.78° C | 59% | 1015.6 hPa | 0 mm | 0 m/s | - | - |
| 1778002412 | 28.33° C | 57% | 1015.7 hPa | 0 mm | 1.34 m/s, 238° | - | - |
| 1778001511 | 28.89° C | 54% | 1015.7 hPa | 0 mm | 0 m/s | - | - |
| 1778000610 | 28.89° C | 53% | 1015.8 hPa | 0 mm | 0 m/s | - | - |
| 1777999709 | 29.44° C | 53% | 1015.9 hPa | 0 mm | 2.24 m/s, 129° | - | - |
| 1777998808 | 28.89° C | 53% | 1016 hPa | 0 mm | 1.34 m/s, 143° | - | - |
| 1777997907 | 29.44° C | 54% | 1016 hPa | 0 mm | 2.24 m/s, 172° | - | - |
| 1777997006 | 28.89° C | 54% | 1016.1 hPa | 0 mm | 1.79 m/s, 105° | - | - |
| 1777996105 | 28.89° C | 57% | 1016.1 hPa | 0 mm | 0 m/s | - | - |
| 1777995204 | 27.22° C | 60% | 1016 hPa | 0 mm | 3.13 m/s, 65° | - | - |
| 1777994303 | 26.67° C | 61% | 1016 hPa | 0 mm | 2.24 m/s, 210° | - | - |
* Rain latest hour (hover to see other rain measurements)
** Current wind speed in m/s (hover to see current wind gust speed)